Time;durP1;ratioP1;P1;durP2;ratioP2;P2;SDS_P1;SDS_P2;PMS_P1;PMS_P2;Temp;Humidity;BMP_temperature;BMP_pressure;BME280_temperature;BME280_humidity;BME280_pressure;Samples;Min_cycle;Max_cycle;Signal;HPM_P1;HPM_P2
2022/04/06 00:01:25;;;;;;;5.93;3.70;;;14.00;18.80;;;;;;5055231;28;20037;-42
2022/04/06 00:03:51;;;;;;;6.50;4.35;;;14.00;18.50;;;;;;5068217;28;20024;-43
2022/04/06 00:06:16;;;;;;;4.88;3.88;;;14.00;18.20;;;;;;5074861;28;20036;-43
2022/04/06 00:08:42;;;;;;;11.48;9.50;;;13.90;18.60;;;;;;5068191;28;20139;-43
2022/04/06 00:11:08;;;;;;;19.15;14.38;;;13.90;19.00;;;;;;5074632;28;20041;-42
2022/04/06 00:13:42;;;;;;;21.98;16.42;;;13.90;19.30;;;;;;5061166;28;20454;-43
2022/04/06 00:16:08;;;;;;;30.48;23.38;;;13.90;19.70;;;;;;5054587;28;20029;-43
2022/04/06 00:18:34;;;;;;;39.58;32.00;;;13.90;20.40;;;;;;5063808;28;20166;-43
2022/04/06 00:21:00;;;;;;;49.28;34.28;;;13.80;22.20;;;;;;5072942;28;20107;-45
2022/04/06 00:23:25;;;;;;;44.58;34.40;;;13.90;22.00;;;;;;5054707;28;20390;-43
2022/04/06 00:25:51;;;;;;;44.55;35.42;;;13.80;22.20;;;;;;5055691;28;20117;-42
2022/04/06 00:28:17;;;;;;;45.08;34.47;;;13.80;22.70;;;;;;5043638;28;20536;-42
2022/04/06 00:30:42;;;;;;;48.55;36.15;;;13.80;22.80;;;;;;5054511;28;20029;-43
2022/04/06 00:33:08;;;;;;;44.13;36.53;;;13.80;22.70;;;;;;5060997;28;20086;-43
2022/04/06 00:35:34;;;;;;;47.78;38.17;;;13.90;23.10;;;;;;5060798;28;20033;-43
2022/04/06 00:38:02;;;;;;;46.33;38.08;;;13.80;23.70;;;;;;5062088;28;20060;-43
2022/04/06 00:40:29;;;;;;;50.83;39.60;;;13.80;24.00;;;;;;5054274;28;20021;-43
2022/04/06 00:42:55;;;;;;;50.25;39.72;;;13.80;24.20;;;;;;5052820;28;20383;-43
2022/04/06 00:45:23;;;;;;;47.05;37.78;;;13.70;24.40;;;;;;5074223;28;20025;-43
2022/04/06 00:47:50;;;;;;;48.85;38.65;;;13.70;24.60;;;;;;5054416;28;20105;-43
2022/04/06 00:50:17;;;;;;;50.55;38.75;;;13.70;25.10;;;;;;5074152;28;20478;-45
2022/04/06 00:52:43;;;;;;;51.70;39.78;;;13.60;25.20;;;;;;5068632;28;20079;-43
2022/04/06 00:55:11;;;;;;;54.58;42.20;;;13.70;25.20;;;;;;5053285;28;20025;-43
2022/04/06 00:57:37;;;;;;;53.00;42.33;;;13.60;25.60;;;;;;5054455;28;20037;-43
2022/04/06 01:00:05;;;;;;;51.67;41.13;;;13.60;25.70;;;;;;5074183;28;20055;-43
2022/04/06 01:02:31;;;;;;;50.17;39.75;;;13.60;25.60;;;;;;5070449;28;20526;-43
2022/04/06 01:04:57;;;;;;;51.50;40.63;;;13.60;25.90;;;;;;5072415;28;20033;-43
2022/04/06 01:07:23;;;;;;;52.17;41.13;;;13.50;26.00;;;;;;5072334;28;20033;-43
2022/04/06 01:09:48;;;;;;;54.17;42.28;;;13.50;25.90;;;;;;5032723;28;20135;-43
2022/04/06 01:12:15;;;;;;;53.40;41.25;;;13.40;26.50;;;;;;5043855;28;20072;-43
2022/04/06 01:14:41;;;;;;;52.63;40.92;;;13.40;26.20;;;;;;5072078;28;20564;-42
2022/04/06 01:17:08;;;;;;;52.53;40.72;;;13.40;26.30;;;;;;5055149;28;20040;-44
2022/04/06 01:19:36;;;;;;;57.92;43.40;;;13.40;26.60;;;;;;5059987;28;20027;-42
2022/04/06 01:22:11;;;;;;;54.15;42.10;;;13.30;26.60;;;;;;5049669;28;20033;-44
2022/04/06 01:24:37;;;;;;;51.35;41.20;;;13.30;27.00;;;;;;5059114;28;20032;-46
2022/04/06 01:27:04;;;;;;;53.90;43.05;;;13.30;26.80;;;;;;5056037;28;20029;-43
2022/04/06 01:29:30;;;;;;;55.90;42.50;;;13.30;26.70;;;;;;5049106;28;20021;-43
2022/04/06 01:31:56;;;;;;;49.15;39.67;;;13.20;27.10;;;;;;5070664;28;20066;-43
2022/04/06 01:34:22;;;;;;;52.38;41.33;;;13.30;27.50;;;;;;5073123;28;20103;-42
2022/04/06 01:36:48;;;;;;;51.83;41.85;;;13.30;27.50;;;;;;5064472;28;20029;-43
2022/04/06 01:39:13;;;;;;;55.75;40.63;;;13.20;27.60;;;;;;5053230;28;20040;-43
2022/04/06 01:41:48;;;;;;;53.80;42.55;;;13.30;27.50;;;;;;5057825;28;20109;-43
2022/04/06 01:44:14;;;;;;;52.15;40.85;;;13.20;28.20;;;;;;5073169;28;20466;-42
2022/04/06 01:46:39;;;;;;;56.05;42.58;;;13.20;27.90;;;;;;5066511;28;20032;-42
2022/04/06 01:54:33;;;;;;;57.17;42.67;;;13.10;28.80;;;;;;5073669;28;20059;-43
2022/04/06 01:56:59;;;;;;;49.75;40.00;;;13.10;28.80;;;;;;5064114;28;20029;-42
2022/04/06 01:59:25;;;;;;;51.30;41.50;;;13.10;29.30;;;;;;5052236;28;20425;-43
2022/04/06 02:01:53;;;;;;;53.15;42.65;;;13.10;29.70;;;;;;5033830;28;20033;-43
2022/04/06 02:04:19;;;;;;;53.90;42.67;;;13.00;29.80;;;;;;5052767;28;20044;-43
2022/04/06 02:06:45;;;;;;;54.38;43.35;;;13.00;30.00;;;;;;5038391;28;20036;-43
2022/04/06 02:09:11;;;;;;;57.85;43.25;;;13.10;35.90;;;;;;5072608;28;20025;-42
2022/04/06 02:11:42;;;;;;;53.13;44.17;;;13.00;30.00;;;;;;5067011;28;20036;-42
2022/04/06 02:14:07;;;;;;;54.72;43.17;;;13.00;30.20;;;;;;5052774;28;20386;-42
2022/04/06 02:16:35;;;;;;;57.47;44.83;;;12.90;30.00;;;;;;5054353;28;20086;-43
2022/04/06 02:19:01;;;;;;;56.08;43.83;;;12.90;30.10;;;;;;5072417;28;20062;-44
2022/04/06 02:21:27;;;;;;;52.53;43.60;;;12.90;30.30;;;;;;5068257;28;20334;-43
2022/04/06 02:23:52;;;;;;;54.33;43.78;;;12.90;30.60;;;;;;5051337;28;20041;-43
2022/04/06 02:26:18;;;;;;;57.97;45.17;;;12.90;30.60;;;;;;5063126;28;20077;-44
2022/04/06 02:28:44;;;;;;;57.65;42.05;;;12.80;30.80;;;;;;5052432;28;20036;-44
2022/04/06 02:31:09;;;;;;;55.83;44.72;;;12.80;31.40;;;;;;5052112;28;20029;-43
2022/04/06 02:33:35;;;;;;;56.25;44.42;;;12.80;31.50;;;;;;5052335;28;20136;-43
2022/04/06 02:36:01;;;;;;;50.83;42.20;;;12.80;31.80;;;;;;5072332;28;20020;-42
2022/04/06 02:38:26;;;;;;;53.22;41.88;;;12.80;32.10;;;;;;5053177;28;20095;-44
2022/04/06 02:40:52;;;;;;;52.42;42.15;;;12.70;32.60;;;;;;5052166;28;20415;-43
2022/04/06 02:43:40;;;;;;;52.25;41.60;;;12.80;32.60;;;;;;5050359;28;20043;-42
2022/04/06 02:46:06;;;;;;;51.17;41.05;;;12.80;33.40;;;;;;5051942;28;20080;-43
2022/04/06 02:58:38;;;;;;;56.85;42.95;;;12.70;34.50;;;;;;5046853;28;20075;-42
2022/04/06 03:01:03;;;;;;;54.00;41.58;;;12.50;33.80;;;;;;5051713;28;20425;-43
2022/04/06 03:03:29;;;;;;;53.95;43.45;;;12.50;34.00;;;;;;5050918;28;20021;-42
2022/04/06 03:05:54;;;;;;;52.17;41.28;;;12.60;34.10;;;;;;5055583;28;20090;-43
2022/04/06 03:08:20;;;;;;;55.67;41.70;;;12.50;34.50;;;;;;5070530;28;20474;-43
2022/04/06 03:10:46;;;;;;;54.85;42.42;;;12.50;34.90;;;;;;5051691;28;20489;-43
2022/04/06 03:13:12;;;;;;;54.00;42.25;;;12.50;35.40;;;;;;5072011;28;20334;-43
2022/04/06 03:15:37;;;;;;;51.53;41.92;;;12.50;35.20;;;;;;5068089;28;20537;-43
2022/04/06 03:18:04;;;;;;;53.38;42.83;;;12.50;35.50;;;;;;5071922;28;20112;-43
2022/04/06 03:20:30;;;;;;;51.05;41.97;;;12.60;35.30;;;;;;5070664;28;20031;-43
2022/04/06 03:22:56;;;;;;;51.95;42.20;;;12.50;35.90;;;;;;5050636;28;20037;-41
2022/04/06 03:25:21;;;;;;;53.35;42.67;;;12.50;35.70;;;;;;5062863;28;20104;-42
2022/04/06 03:27:47;;;;;;;59.35;43.08;;;12.50;36.10;;;;;;5055427;28;20033;-42
2022/04/06 03:30:13;;;;;;;55.65;43.47;;;12.40;36.00;;;;;;5056164;28;20112;-43
2022/04/06 03:32:40;;;;;;;57.25;44.28;;;12.40;36.80;;;;;;5069273;28;20150;-43
2022/04/06 03:35:06;;;;;;;56.95;42.92;;;12.40;36.80;;;;;;5069842;28;20033;-43
2022/04/06 03:37:32;;;;;;;51.05;40.83;;;12.40;37.10;;;;;;5058144;28;20067;-43
2022/04/06 03:39:58;;;;;;;53.08;40.67;;;12.40;37.40;;;;;;5055692;28;20025;-43
2022/04/06 03:42:24;;;;;;;51.17;39.78;;;12.30;38.30;;;;;;5050774;28;20037;-43
2022/04/06 03:44:50;;;;;;;50.13;40.65;;;12.20;38.00;;;;;;5075623;28;20056;-42
2022/04/06 03:47:16;;;;;;;50.92;41.08;;;12.40;38.00;;;;;;5060641;28;20211;-42
2022/04/06 03:50:01;;;;;;;48.55;40.25;;;12.40;38.40;;;;;;5055524;28;20028;-42
2022/04/06 03:52:27;;;;;;;51.58;39.88;;;12.40;38.80;;;;;;5068067;28;20048;-44
2022/04/06 03:54:53;;;;;;;49.40;39.85;;;;;;;;;;5075191;28;20123;-42
2022/04/06 03:57:19;;;;;;;49.88;39.72;;;12.20;38.30;;;;;;5060351;28;20107;-43
2022/04/06 03:59:45;;;;;;;48.85;39.13;;;12.20;38.70;;;;;;5055226;28;20052;-43
2022/04/06 04:02:11;;;;;;;47.63;38.28;;;12.20;38.60;;;;;;5056890;28;20114;-43
2022/04/06 04:04:36;;;;;;;48.88;40.03;;;12.30;39.00;;;;;;5045377;28;20143;-44
2022/04/06 04:07:02;;;;;;;48.55;38.95;;;12.30;38.60;;;;;;5055773;28;20389;-42
2022/04/06 04:09:31;;;;;;;52.28;39.33;;;12.20;39.00;;;;;;5046996;28;20043;-45
2022/04/06 04:11:56;;;;;;;50.85;38.97;;;12.20;39.50;;;;;;5046389;28;20128;-43
2022/04/06 04:14:23;;;;;;;51.83;39.25;;;12.20;39.60;;;;;;5034278;28;20657;-43
2022/04/06 04:16:49;;;;;;;51.20;39.08;;;12.00;39.80;;;;;;5041853;28;20029;-45
2022/04/06 04:19:15;;;;;;;53.25;40.72;;;12.00;40.10;;;;;;5054759;28;20029;-44
2022/04/06 04:21:42;;;;;;;51.28;40.50;;;12.00;40.00;;;;;;5053587;28;20060;-42
2022/04/06 04:24:09;;;;;;;48.53;38.35;;;12.10;40.50;;;;;;5054553;28;20029;-42
2022/04/06 04:26:36;;;;;;;49.78;38.95;;;12.10;40.20;;;;;;5059137;28;20025;-42
2022/04/06 04:29:05;;;;;;;47.83;38.80;;;11.90;40.60;;;;;;5074711;28;20037;-42
2022/04/06 04:31:31;;;;;;;51.38;39.97;;;11.80;41.00;;;;;;5060627;28;20498;-42
2022/04/06 04:33:57;;;;;;;48.92;37.55;;;11.90;41.60;;;;;;5054487;28;20039;-42
2022/04/06 04:36:23;;;;;;;48.63;38.78;;;11.90;41.90;;;;;;5057090;28;20120;-42
2022/04/06 04:38:50;;;;;;;46.92;37.92;;;12.00;40.80;;;;;;5063735;28;20048;-42
2022/04/06 04:41:16;;;;;;;50.40;38.38;;;11.90;41.00;;;;;;5036868;28;20142;-41
2022/04/06 04:43:42;;;;;;;49.15;38.03;;;12.00;41.00;;;;;;5059444;28;20103;-42
2022/04/06 04:46:18;;;;;;;50.33;38.78;;;11.90;41.30;;;;;;5070983;28;20052;-42
2022/04/06 04:48:45;;;;;;;50.30;37.08;;;11.90;42.00;;;;;;5034331;28;20554;-42
2022/04/06 04:51:11;;;;;;;43.78;35.33;;;11.90;42.10;;;;;;5033948;28;20029;-42
2022/04/06 04:53:37;;;;;;;47.10;37.47;;;11.90;41.50;;;;;;5052527;28;20148;-42
2022/04/06 04:56:03;;;;;;;44.80;35.25;;;12.00;42.60;;;;;;5053986;28;20056;-42
2022/04/06 04:58:29;;;;;;;47.28;36.50;;;11.90;41.80;;;;;;5053134;28;20052;-42
2022/04/06 05:00:54;;;;;;;46.40;36.17;;;11.90;42.00;;;;;;5052849;28;20029;-43
2022/04/06 05:03:21;;;;;;;45.28;34.72;;;11.90;41.60;;;;;;5052753;28;20040;-45
2022/04/06 05:05:50;;;;;;;46.47;36.15;;;11.90;42.50;;;;;;5069045;28;20091;-44
2022/04/06 05:08:15;;;;;;;50.53;35.58;;;11.90;42.00;;;;;;5067007;28;20020;-41
2022/04/06 05:10:41;;;;;;;42.88;35.85;;;11.90;41.70;;;;;;5064406;28;20086;-42
2022/04/06 05:13:08;;;;;;;46.70;35.75;;;11.90;42.00;;;;;;5066619;28;20052;-42
2022/04/06 05:15:34;;;;;;;42.95;33.70;;;11.90;41.60;;;;;;5054328;28;20033;-41
2022/04/06 05:18:00;;;;;;;47.35;35.42;;;12.00;42.20;;;;;;5033322;28;20078;-42
2022/04/06 05:20:25;;;;;;;43.92;34.85;;;12.00;41.10;;;;;;5062265;28;20115;-41
2022/04/06 05:22:51;;;;;;;50.45;35.50;;;12.00;41.60;;;;;;5058990;28;20098;-41
2022/04/06 05:25:16;;;;;;;47.28;36.65;;;11.90;41.30;;;;;;5052078;28;20032;-43
2022/04/06 05:27:50;;;;;;;47.70;35.50;;;12.00;41.30;;;;;;5068220;28;20036;-42
2022/04/06 05:30:17;;;;;;;44.63;35.30;;;12.00;41.80;;;;;;5072245;28;20031;-42
2022/04/06 05:32:45;;;;;;;48.63;36.67;;;11.90;41.50;;;;;;5062795;28;20047;-42
2022/04/06 05:35:12;;;;;;;49.80;38.25;;;11.90;42.20;;;;;;5047959;28;20839;-42
2022/04/06 05:37:39;;;;;;;51.95;38.55;;;11.90;41.80;;;;;;5062981;28;20025;-42
2022/04/06 05:40:07;;;;;;;47.78;37.22;;;11.90;42.40;;;;;;5053250;28;20027;-42
2022/04/06 05:42:33;;;;;;;52.92;36.95;;;12.00;42.30;;;;;;5058978;28;20039;-42
2022/04/06 05:44:58;;;;;;;48.03;37.17;;;12.00;41.90;;;;;;5073078;28;20021;-41
2022/04/06 05:47:24;;;;;;;48.70;38.38;;;12.00;42.10;;;;;;5065878;28;20035;-42
2022/04/06 05:49:50;;;;;;;47.95;37.47;;;11.90;42.30;;;;;;5052828;28;20429;-42
2022/04/06 05:52:16;;;;;;;52.17;38.17;;;12.00;42.10;;;;;;5055905;28;20047;-42
2022/04/06 05:54:42;;;;;;;48.70;37.35;;;12.00;42.30;;;;;;5072681;28;20025;-43
2022/04/06 05:57:07;;;;;;;43.20;36.53;;;11.90;42.50;;;;;;5067584;28;20108;-42
2022/04/06 05:59:33;;;;;;;47.38;37.40;;;11.90;42.40;;;;;;5059627;28;20028;-42
2022/04/06 06:01:59;;;;;;;47.28;36.35;;;11.90;42.50;;;;;;5069387;28;20032;-42
2022/04/06 06:04:24;;;;;;;44.03;35.30;;;11.90;42.90;;;;;;5052657;28;20425;-42
2022/04/06 06:06:50;;;;;;;49.67;36.75;;;11.90;42.80;;;;;;5033921;28;20025;-42
2022/04/06 06:09:16;;;;;;;45.72;36.22;;;11.80;43.00;;;;;;5072652;28;20157;-42
2022/04/06 06:11:44;;;;;;;42.10;35.85;;;11.80;42.90;;;;;;5072493;28;20173;-42
2022/04/06 06:14:10;;;;;;;43.28;34.70;;;11.90;42.80;;;;;;5071387;28;20032;-42
2022/04/06 06:16:35;;;;;;;48.03;36.57;;;12.00;42.40;;;;;;5072424;28;20462;-42
2022/04/06 06:19:01;;;;;;;48.35;36.92;;;12.00;42.40;;;;;;5070331;28;20035;-42
2022/04/06 06:21:31;;;;;;;44.90;35.17;;;12.00;42.40;;;;;;5063638;28;20025;-42
2022/04/06 06:24:04;;;;;;;45.75;35.65;;;12.10;42.50;;;;;;5051503;28;20112;-42
2022/04/06 06:26:29;;;;;;;45.03;35.22;;;12.10;42.00;;;;;;5052449;28;20029;-43
2022/04/06 06:28:55;;;;;;;45.13;36.25;;;12.10;42.00;;;;;;5067691;28;20036;-42
2022/04/06 06:31:21;;;;;;;47.70;36.50;;;12.10;41.70;;;;;;5067972;28;20040;-42
2022/04/06 06:33:47;;;;;;;50.28;37.75;;;12.10;41.00;;;;;;5065428;28;20032;-43
2022/04/06 06:36:13;;;;;;;46.83;37.03;;;12.00;41.30;;;;;;5072242;28;20028;-44
2022/04/06 06:38:38;;;;;;;49.23;36.87;;;12.10;40.60;;;;;;5056454;28;20029;-43
2022/04/06 06:41:04;;;;;;;45.10;35.72;;;12.20;40.00;;;;;;5034211;28;20074;-42
2022/04/06 06:43:30;;;;;;;43.50;34.53;;;12.20;39.50;;;;;;5044290;28;20417;-43
2022/04/06 06:45:55;;;;;;;44.95;35.30;;;12.30;39.10;;;;;;5072233;28;20089;-43
2022/04/06 06:48:21;;;;;;;45.70;34.65;;;12.30;39.00;;;;;;5052364;28;20532;-44
2022/04/06 06:50:46;;;;;;;47.45;35.33;;;12.40;38.30;;;;;;5072204;28;20063;-44
2022/04/06 06:53:12;;;;;;;43.25;34.53;;;12.30;37.90;;;;;;5060720;28;20394;-43
2022/04/06 06:55:38;;;;;;;46.92;35.13;;;12.40;37.90;;;;;;5051886;28;20028;-44
2022/04/06 06:58:18;;;;;;;46.40;34.38;;;12.30;37.00;;;;;;5033065;28;20029;-44
2022/04/06 07:00:44;;;;;;;46.75;34.35;;;12.30;36.00;;;;;;5033741;28;20128;-43
2022/04/06 07:03:10;;;;;;;42.65;32.47;;;12.50;36.70;;;;;;5058590;28;20162;-44
2022/04/06 07:05:36;;;;;;;43.67;34.47;;;12.50;35.50;;;;;;5071783;28;20111;-46
2022/04/06 07:08:01;;;;;;;37.45;29.40;;;12.50;36.00;;;;;;5069766;28;20036;-44
2022/04/06 07:10:29;;;;;;;39.65;30.27;;;12.50;35.70;;;;;;5071800;28;20108;-43
2022/04/06 07:12:54;;;;;;;33.78;28.25;;;12.60;34.50;;;;;;5069192;28;20049;-45
2022/04/06 07:15:20;;;;;;;41.85;31.90;;;12.60;34.30;;;;;;5071693;28;20408;-43
2022/04/06 07:17:54;;;;;;;39.63;29.10;;;12.60;33.70;;;;;;5065450;28;20486;-45
2022/04/06 07:20:21;;;;;;;42.92;29.58;;;12.70;33.10;;;;;;5056509;28;20093;-44
2022/04/06 07:22:46;;;;;;;41.35;30.92;;;12.50;33.50;;;;;;5060950;28;20417;-46
2022/04/06 07:25:12;;;;;;;38.10;28.45;;;12.70;33.40;;;;;;5065254;28;20027;-43
2022/04/06 07:27:38;;;;;;;40.00;30.25;;;12.70;33.30;;;;;;5058049;28;20052;-43
2022/04/06 07:30:07;;;;;;;39.88;28.77;;;12.70;33.40;;;;;;5053050;28;20029;-46
2022/04/06 07:32:33;;;;;;;39.78;28.40;;;12.60;32.30;;;;;;5061389;28;20048;-44
2022/04/06 07:35:00;;;;;;;40.70;28.00;;;12.60;32.50;;;;;;5045169;28;20448;-43
2022/04/06 07:37:25;;;;;;;42.35;28.67;;;12.70;32.40;;;;;;5067142;28;20090;-43
2022/04/06 07:39:51;;;;;;;36.08;26.90;;;12.80;32.30;;;;;;5055126;28;20028;-44
2022/04/06 07:42:17;;;;;;;32.25;25.05;;;12.90;32.10;;;;;;5063256;28;20036;-43
2022/04/06 07:44:42;;;;;;;32.65;25.80;;;12.90;30.70;;;;;;5069223;28;20111;-44
2022/04/06 07:47:08;;;;;;;38.17;26.40;;;12.80;30.30;;;;;;5042437;28;20025;-42
2022/04/06 07:49:46;;;;;;;38.55;29.00;;;12.80;31.10;;;;;;5059890;28;20031;-42
2022/04/06 07:52:11;;;;;;;36.20;28.17;;;12.80;30.40;;;;;;5059784;28;20041;-43
2022/04/06 07:54:37;;;;;;;35.60;25.75;;;12.80;30.60;;;;;;5048715;28;20034;-43
2022/04/06 07:57:03;;;;;;;36.60;27.63;;;12.90;30.40;;;;;;5050707;28;20062;-43
2022/04/06 07:59:29;;;;;;;35.58;27.48;;;12.90;30.50;;;;;;5058632;28;20028;-42
2022/04/06 08:01:54;;;;;;;33.47;24.85;;;13.00;30.40;;;;;;5055023;28;22414;-43
2022/04/06 08:04:20;;;;;;;34.10;26.20;;;13.20;29.90;;;;;;5054337;28;20029;-43
2022/04/06 08:06:46;;;;;;;38.00;27.38;;;13.20;29.50;;;;;;5051872;28;20045;-43
2022/04/06 08:09:12;;;;;;;34.17;26.45;;;13.20;29.70;;;;;;5056976;28;20018;-42
2022/04/06 08:11:41;;;;;;;41.95;33.83;;;13.20;29.40;;;;;;5026108;28;20037;-42
2022/04/06 08:14:07;;;;;;;34.63;28.60;;;13.30;29.80;;;;;;5010175;28;20041;-42
2022/04/06 08:16:32;;;;;;;35.10;25.08;;;13.30;29.30;;;;;;5017875;28;20026;-42
2022/04/06 08:18:58;;;;;;;36.15;26.08;;;13.30;29.50;;;;;;5017720;28;20030;-42
2022/04/06 08:21:23;;;;;;;36.15;25.52;;;13.40;28.70;;;;;;5026370;28;20037;-42
2022/04/06 08:23:49;;;;;;;33.97;26.45;;;13.40;28.70;;;;;;5012781;28;20033;-42
2022/04/06 08:26:15;;;;;;;38.35;27.98;;;13.40;28.50;;;;;;5014651;28;20391;-43
2022/04/06 08:28:40;;;;;;;33.38;25.55;;;13.50;28.70;;;;;;5014001;28;20018;-42
2022/04/06 08:31:06;;;;;;;35.58;25.33;;;13.60;28.60;;;;;;5014498;28;20022;-42
2022/04/06 08:33:32;;;;;;;32.53;25.02;;;13.70;27.90;;;;;;5012734;28;20030;-42
2022/04/06 08:35:57;;;;;;;34.95;23.63;;;13.60;28.00;;;;;;5014903;28;20026;-42
2022/04/06 08:38:23;;;;;;;31.67;24.65;;;13.70;27.70;;;;;;5018048;28;20116;-44
2022/04/06 08:40:49;;;;;;;36.80;25.20;;;13.70;27.90;;;;;;5034636;28;20032;-43
2022/04/06 08:43:17;;;;;;;32.13;24.77;;;13.80;27.50;;;;;;5028234;28;20109;-42
2022/04/06 08:45:43;;;;;;;33.00;24.85;;;13.90;27.30;;;;;;5034023;28;20032;-42
2022/04/06 08:48:10;;;;;;;25.98;20.92;;;13.90;27.20;;;;;;5030919;28;20029;-43
2022/04/06 08:50:37;;;;;;;30.10;22.15;;;13.90;26.30;;;;;;5028901;28;20482;-42
2022/04/06 08:53:04;;;;;;;28.55;20.77;;;14.00;26.60;;;;;;5014851;28;20095;-42
2022/04/06 08:55:32;;;;;;;32.50;23.25;;;14.00;25.30;;;;;;5015054;28;20079;-43
2022/04/06 08:57:59;;;;;;;33.00;22.83;;;14.00;25.60;;;;;;5021124;28;20036;-42
2022/04/06 09:00:26;;;;;;;32.20;22.67;;;14.10;26.20;;;;;;5016890;28;20052;-42
2022/04/06 09:02:52;;;;;;;36.88;24.70;;;14.20;26.30;;;;;;5012672;28;20034;-43
2022/04/06 09:05:23;;;;;;;29.92;23.33;;;14.20;25.70;;;;;;5021224;28;20029;-45
2022/04/06 09:07:51;;;;;;;32.30;22.30;;;14.20;25.50;;;;;;5016501;28;20052;-42
2022/04/06 09:10:38;;;;;;;29.20;22.40;;;14.20;24.90;;;;;;5027719;28;20037;-43
2022/04/06 09:13:17;;;;;;;32.45;22.85;;;14.30;25.20;;;;;;5048056;28;20160;-42
2022/04/06 09:15:44;;;;;;;32.13;24.65;;;14.30;25.40;;;;;;5039410;28;20020;-43
2022/04/06 09:18:10;;;;;;;33.65;24.80;;;14.30;26.10;;;;;;5040890;28;20028;-42
2022/04/06 09:20:35;;;;;;;34.75;26.48;;;14.50;25.80;;;;;;5042380;28;20021;-42
2022/04/06 09:23:03;;;;;;;36.17;26.98;;;14.50;26.10;;;;;;5033006;28;20056;-43
2022/04/06 09:25:42;;;;;;;36.47;25.75;;;14.50;25.40;;;;;;5038158;28;20051;-42
2022/04/06 09:28:09;;;;;;;38.05;28.00;;;14.60;25.90;;;;;;5045795;28;20029;-43
2022/04/06 09:30:38;;;;;;;30.30;25.23;;;14.80;28.50;;;;;;5033371;28;20033;-43
2022/04/06 09:33:04;;;;;;;34.72;27.02;;;14.80;25.90;;;;;;5037395;28;20219;-42
2022/04/06 09:35:32;;;;;;;34.58;27.00;;;14.80;25.70;;;;;;5051838;28;20051;-42
2022/04/06 09:38:11;;;;;;;39.40;27.90;;;;;;;;;;5045698;28;20030;-45
2022/04/06 09:40:39;;;;;;;38.58;29.63;;;15.00;25.20;;;;;;5033261;28;20099;-43
2022/04/06 09:43:07;;;;;;;37.40;29.55;;;14.90;25.90;;;;;;5036999;28;20024;-43
2022/04/06 09:48:17;;;;;;;35.00;29.05;;;15.00;26.10;;;;;;5042708;28;20032;-42
2022/04/06 09:50:55;;;;;;;35.45;28.83;;;15.10;25.80;;;;;;5033138;28;20026;-45
2022/04/06 09:53:25;;;;;;;42.55;28.83;;;15.30;25.80;;;;;;5031101;28;20388;-44
2022/04/06 09:55:54;;;;;;;39.47;27.98;;;15.30;25.60;;;;;;5026508;28;20069;-44
2022/04/06 09:58:21;;;;;;;33.33;27.85;;;15.40;25.70;;;;;;5033066;28;20025;-45
2022/04/06 10:00:48;;;;;;;33.38;27.02;;;15.40;25.00;;;;;;5030505;28;20096;-43
2022/04/06 10:03:15;;;;;;;34.92;28.88;;;15.40;25.60;;;;;;5044010;28;20029;-44
2022/04/06 10:05:44;;;;;;;35.42;28.70;;;15.50;24.80;;;;;;5041104;28;20021;-44
2022/04/06 10:08:11;;;;;;;36.83;29.45;;;15.60;25.40;;;;;;5036470;28;20021;-43
2022/04/06 10:10:42;;;;;;;34.42;27.23;;;15.70;25.10;;;;;;5052668;28;20120;-43
2022/04/06 10:13:08;;;;;;;36.13;29.27;;;15.70;24.50;;;;;;5066802;28;20402;-43
2022/04/06 10:15:35;;;;;;;36.05;30.02;;;15.80;24.80;;;;;;5072323;28;20040;-43
2022/04/06 10:18:05;;;;;;;38.42;30.42;;;15.90;24.80;;;;;;5070607;28;20143;-43
2022/04/06 10:20:43;;;;;;;38.13;29.25;;;16.00;25.00;;;;;;5072550;28;20410;-42
2022/04/06 10:23:09;;;;;;;37.85;30.17;;;16.00;24.50;;;;;;5063986;28;20029;-43
2022/04/06 10:26:04;;;;;;;34.97;29.88;;;16.10;24.40;;;;;;5051593;28;20475;-42
2022/04/06 10:28:33;;;;;;;33.67;29.90;;;16.00;24.70;;;;;;5042155;28;20027;-42
2022/04/06 10:31:22;;;;;;;41.22;30.33;;;16.10;25.00;;;;;;5056558;28;20031;-43
2022/04/06 10:34:11;;;;;;;39.00;29.75;;;16.30;24.60;;;;;;5057683;28;20063;-43
2022/04/06 10:36:41;;;;;;;40.70;31.00;;;16.40;24.40;;;;;;5055642;28;20036;-43
2022/04/06 10:39:06;;;;;;;36.00;28.20;;;16.40;24.30;;;;;;5057147;28;20437;-44
2022/04/06 10:41:33;;;;;;;39.10;30.23;;;16.50;24.00;;;;;;5050345;28;20033;-43
2022/04/06 10:43:59;;;;;;;29.65;26.50;;;16.50;23.90;;;;;;5054488;28;20021;-43
2022/04/06 10:46:51;;;;;;;34.63;27.10;;;16.40;23.00;;;;;;5019713;28;20056;-43
2022/04/06 10:49:17;;;;;;;33.33;26.42;;;16.60;22.90;;;;;;5054911;28;20128;-43
2022/04/06 10:51:48;;;;;;;33.58;28.38;;;16.80;22.40;;;;;;5072166;28;20133;-44
2022/04/06 10:54:14;;;;;;;33.78;27.02;;;16.90;22.10;;;;;;5050815;28;20078;-43
2022/04/06 10:56:55;;;;;;;33.60;24.60;;;17.00;21.80;;;;;;5071879;28;20029;-43
2022/04/06 10:59:27;;;;;;;33.33;25.52;;;17.10;20.50;;;;;;5039830;28;20063;-43
2022/04/06 11:02:29;;;;;;;36.47;26.35;;;17.30;21.20;;;;;;5048326;28;20032;-43
2022/04/06 11:04:55;;;;;;;32.95;25.25;;;17.20;20.70;;;;;;4971077;28;20030;-43
2022/04/06 11:10:29;;;;;;;32.78;24.35;;;17.20;20.10;;;;;;5062416;28;20062;-43
2022/04/06 11:13:06;;;;;;;36.30;26.77;;;17.30;20.60;;;;;;5060474;28;20148;-43
2022/04/06 11:15:37;;;;;;;37.30;26.98;;;17.40;20.60;;;;;;5052966;28;20035;-42
2022/04/06 11:18:05;;;;;;;34.95;27.60;;;17.40;20.60;;;;;;5054860;28;20025;-43
2022/04/06 11:20:33;;;;;;;33.30;27.35;;;17.40;20.60;;;;;;5071589;28;20496;-43
2022/04/06 11:23:00;;;;;;;36.08;27.33;;;17.50;19.90;;;;;;5064613;28;20040;-43
2022/04/06 11:25:31;;;;;;;33.60;28.90;;;17.60;20.60;;;;;;5033105;28;20029;-43
2022/04/06 11:28:13;;;;;;;36.13;30.20;;;17.70;20.90;;;;;;5057121;28;20429;-43
2022/04/06 11:30:47;;;;;;;39.38;29.58;;;17.70;20.90;;;;;;5060375;28;20420;-43
2022/04/06 11:33:13;;;;;;;;;;;17.60;20.50;;;;;;5069127;28;20036;-46
2022/04/06 11:35:40;;;;;;;39.58;29.48;;;17.70;19.20;;;;;;5033580;28;20019;-44
2022/04/06 11:38:07;;;;;;;36.92;26.52;;;17.70;20.20;;;;;;5050111;28;20040;-43
2022/04/06 11:40:37;;;;;;;35.45;26.92;;;18.00;19.60;;;;;;5031491;28;20020;-43
2022/04/06 11:43:05;;;;;;;39.10;28.90;;;18.00;18.90;;;;;;5049921;28;20442;-44
2022/04/06 11:45:33;;;;;;;39.33;29.38;;;18.20;18.90;;;;;;5071058;28;20397;-44
2022/04/06 11:48:01;;;;;;;38.33;30.10;;;18.40;18.70;;;;;;5071307;28;20047;-43
2022/04/06 11:50:32;;;;;;;39.95;29.70;;;18.30;18.40;;;;;;5050748;28;20032;-43
2022/04/06 11:53:23;;;;;;;39.55;29.25;;;18.50;18.20;;;;;;5071373;28;20079;-43
2022/04/06 11:55:50;;;;;;;36.92;28.90;;;18.60;17.50;;;;;;5035365;28;20032;-43
2022/04/06 11:58:39;;;;;;;39.00;29.20;;;18.70;17.20;;;;;;5035536;28;20025;-43
2022/04/06 12:01:08;;;;;;;43.83;30.67;;;18.90;16.20;;;;;;5053632;28;20033;-43
2022/04/06 12:03:36;;;;;;;40.78;29.92;;;18.80;17.00;;;;;;5071932;28;20509;-43
2022/04/06 12:06:03;;;;;;;37.83;28.75;;;19.00;16.90;;;;;;5047210;28;20033;-45
2022/04/06 12:08:31;;;;;;;39.05;31.17;;;19.10;16.90;;;;;;5066333;28;20024;-43
2022/04/06 12:10:58;;;;;;;42.58;31.80;;;19.20;16.50;;;;;;5044339;28;20084;-43
2022/04/06 12:13:28;;;;;;;38.38;29.65;;;19.20;16.60;;;;;;5061278;28;20112;-43
2022/04/06 12:15:55;;;;;;;35.42;29.45;;;19.20;16.00;;;;;;5053522;28;20566;-44
2022/04/06 12:18:23;;;;;;;34.78;29.70;;;19.40;16.70;;;;;;5034873;28;20394;-44
2022/04/06 12:20:50;;;;;;;39.38;30.73;;;20.00;15.90;;;;;;5051214;28;20073;-43
2022/04/06 12:23:17;;;;;;;33.67;29.52;;;21.30;12.90;;;;;;5049180;28;20036;-44
2022/04/06 12:25:43;;;;;;;39.35;28.90;;;22.30;12.70;;;;;;5066746;28;20377;-43
2022/04/06 12:28:13;;;;;;;34.53;28.52;;;22.70;11.80;;;;;;5068892;28;20036;-45
2022/04/06 12:30:57;;;;;;;33.45;27.58;;;22.80;9.60;;;;;;5047052;28;20020;-44
2022/04/06 12:33:55;;;;;;;39.37;28.27;;;23.40;8.80;;;;;;5035924;28;20045;-42
2022/04/06 12:36:25;;;;;;;38.95;29.65;;;23.90;8.10;;;;;;5011726;28;20055;-42
2022/04/06 12:39:02;;;;;;;35.35;29.35;;;23.50;8.50;;;;;;5043423;28;20036;-41
2022/04/06 12:41:30;;;;;;;33.67;28.13;;;23.70;8.60;;;;;;5070211;28;20068;-42
2022/04/06 12:43:56;;;;;;;33.35;27.05;;;23.90;8.40;;;;;;5072135;28;20081;-42
2022/04/06 12:46:41;;;;;;;31.95;26.50;;;24.50;7.40;;;;;;5072043;28;20030;-42
2022/04/06 12:49:37;;;;;;;31.00;25.77;;;25.30;4.90;;;;;;5074202;28;20092;-44
2022/04/06 12:52:05;;;;;;;31.60;25.45;;;25.60;3.50;;;;;;5043675;28;20090;-43
2022/04/06 12:54:33;;;;;;;32.55;27.30;;;25.60;4.70;;;;;;5054151;28;20037;-41